Terminal Aerodrome Forecast
Issued by NWS Topeka, KS

Home | Current Version | Previous Version | Graphics & Text | Print | Product List | Glossary On
Versions: 1 2 3 4 5 6 7 8 9 10 11 12 13 14 15 16 17
615
FTUS43 KTOP 090539
TAFTOP
TAF
KTOP 090539Z 0906/1006 30011KT P6SM SKC
     FM091400 32016G24KT P6SM SCT040
     FM100000 33010KT P6SM FEW040=

USA.gov is the U.S. government's official web portal to all federal, state and local government web resources and services.